createdAt,value
2019-05-25T00:02:13.623Z,47.85
2019-05-25T00:04:42.339Z,48.43
2019-05-25T00:07:10.675Z,48.44
2019-05-25T00:09:38.955Z,50.50
2019-05-25T00:12:07.623Z,47.80
2019-05-25T00:14:35.978Z,46.53
2019-05-25T00:17:04.497Z,45.69
2019-05-25T00:19:32.910Z,46.30
2019-05-25T00:22:01.332Z,44.01
2019-05-25T00:24:29.806Z,43.84
2019-05-25T00:26:58.137Z,43.91
2019-05-25T00:29:26.459Z,43.73
2019-05-25T00:31:54.967Z,44.45
2019-05-25T00:34:23.644Z,45.86
2019-05-25T00:36:52.867Z,46.13
2019-05-25T00:39:21.521Z,45.67
2019-05-25T00:41:50.171Z,44.93
2019-05-25T00:44:18.478Z,46.77
2019-05-25T00:46:46.803Z,46.03
2019-05-25T00:49:15.102Z,44.59
2019-05-25T00:51:43.424Z,44.22
2019-05-25T00:54:26.740Z,46.73
2019-05-25T00:56:41.827Z,47.12
2019-05-25T00:59:10.128Z,47.79
2019-05-25T01:01:38.524Z,46.12
2019-05-25T01:04:06.868Z,44.71
2019-05-25T01:06:35.996Z,44.71
2019-05-25T01:09:05.932Z,44.25
2019-05-25T01:11:34.292Z,44.68
2019-05-25T01:14:02.616Z,44.68
2019-05-25T01:16:30.910Z,44.90
2019-05-25T01:18:59.246Z,47.27
2019-05-25T01:21:27.615Z,46.71
2019-05-25T01:23:56.228Z,48.14
2019-05-25T01:26:24.748Z,46.60
2019-05-25T01:28:53.359Z,46.74
2019-05-25T01:31:21.989Z,47.59
2019-05-25T01:33:50.281Z,47.79
2019-05-25T01:36:18.696Z,46.63
2019-05-25T01:38:46.990Z,45.99
2019-05-25T01:41:15.307Z,45.45
2019-05-25T01:43:43.742Z,45.85
2019-05-25T01:46:12.080Z,47.06
2019-05-25T01:48:40.379Z,46.00
2019-05-25T01:51:08.680Z,46.29
2019-05-25T01:53:37.003Z,47.16
2019-05-25T01:56:05.298Z,46.46
2019-05-25T01:58:33.888Z,45.65
2019-05-25T02:01:02.254Z,46.09
2019-05-25T02:03:30.571Z,45.65
2019-05-25T02:05:59.001Z,46.02
2019-05-25T02:08:27.416Z,46.30
2019-05-25T02:10:55.715Z,46.40
2019-05-25T02:13:24.036Z,47.46
2019-05-25T02:15:52.339Z,48.58
2019-05-25T02:18:20.656Z,48.22
2019-05-25T02:20:49.023Z,46.09
2019-05-25T02:23:17.325Z,46.91
2019-05-25T02:25:45.790Z,46.89
2019-05-25T02:28:14.095Z,45.89
2019-05-25T02:30:42.525Z,44.45
2019-05-25T02:33:10.895Z,45.47
2019-05-25T02:35:39.214Z,46.94
2019-05-25T02:38:07.664Z,47.91
2019-05-25T02:40:35.992Z,46.23
2019-05-25T02:43:04.661Z,47.64
2019-05-25T02:45:33.410Z,48.38
2019-05-25T02:48:01.727Z,46.10
2019-05-25T02:50:30.175Z,45.59
2019-05-25T02:52:58.578Z,47.92
2019-05-25T02:55:34.164Z,48.08
2019-05-25T02:57:56.962Z,48.08
2019-05-25T03:00:34.799Z,47.96
2019-05-25T03:03:03.715Z,48.97
2019-05-25T03:05:32.154Z,47.95
2019-05-25T03:08:00.842Z,49.30
2019-05-25T03:10:29.630Z,49.38
2019-05-25T03:12:59.728Z,47.85
2019-05-25T03:15:28.130Z,49.24
2019-05-25T03:17:56.896Z,50.33
2019-05-25T03:20:25.215Z,48.76
2019-05-25T03:22:53.514Z,47.46
2019-05-25T03:25:21.902Z,46.41
2019-05-25T03:27:50.937Z,45.88
2019-05-25T03:30:31.309Z,47.74
2019-05-25T03:32:59.599Z,47.52
2019-05-25T03:35:27.959Z,48.35
2019-05-25T03:37:56.849Z,47.23
2019-05-25T03:40:25.218Z,50.17
2019-05-25T03:42:53.997Z,49.31
2019-05-25T03:45:22.527Z,47.35
2019-05-25T03:47:50.917Z,46.19
2019-05-25T03:50:19.554Z,48.19
2019-05-25T03:52:47.947Z,46.42
2019-05-25T03:55:16.453Z,47.37
2019-05-25T03:57:44.823Z,47.15
2019-05-25T04:00:14.697Z,46.13
2019-05-25T04:02:43.011Z,45.69
2019-05-25T04:05:11.380Z,44.98
2019-05-25T04:07:39.749Z,44.88
2019-05-25T04:10:08.477Z,45.72
2019-05-25T04:12:36.878Z,45.55
2019-05-25T04:15:06.819Z,46.01
2019-05-25T04:17:35.135Z,47.18
2019-05-25T04:20:05.405Z,47.45
2019-05-25T04:22:33.742Z,47.40
2019-05-25T04:25:02.039Z,47.28
2019-05-25T04:27:30.333Z,47.44
2019-05-25T04:29:58.927Z,46.60
2019-05-25T04:32:27.223Z,46.71
2019-05-25T04:34:55.559Z,49.24
2019-05-25T04:37:24.088Z,48.64
2019-05-25T04:39:52.459Z,46.54
2019-05-25T04:42:20.772Z,45.61
2019-05-25T04:44:49.072Z,47.77
2019-05-25T04:47:26.659Z,47.89
2019-05-25T04:49:47.698Z,47.46
2019-05-25T04:52:16.081Z,49.42
2019-05-25T04:54:44.411Z,49.62
2019-05-25T04:57:12.742Z,50.45
2019-05-25T04:59:41.446Z,46.52
2019-05-25T05:02:09.751Z,46.51
2019-05-25T05:04:38.075Z,45.87
2019-05-25T05:07:06.453Z,46.62
2019-05-25T05:09:35.071Z,46.20
2019-05-25T05:12:03.453Z,45.71
2019-05-25T05:14:31.758Z,45.56
2019-05-25T05:17:00.078Z,44.36
2019-05-25T05:19:28.444Z,44.53
2019-05-25T05:21:56.704Z,47.06
2019-05-25T05:24:25.007Z,47.80
2019-05-25T05:26:56.223Z,46.47
2019-05-25T05:29:23.890Z,49.96
2019-05-25T05:31:52.332Z,48.42
2019-05-25T05:34:20.694Z,47.82
2019-05-25T05:36:49.700Z,46.29
2019-05-25T05:39:18.380Z,46.29
2019-05-25T05:41:48.542Z,45.39
2019-05-25T05:44:19.041Z,45.05
2019-05-25T05:46:47.810Z,45.53
2019-05-25T05:49:16.499Z,45.75
2019-05-25T05:51:47.966Z,45.53
2019-05-25T05:54:18.323Z,46.71
2019-05-25T05:56:46.627Z,46.80
2019-05-25T05:59:14.949Z,47.19
2019-05-25T06:01:43.246Z,44.36
2019-05-25T06:04:11.573Z,44.39
2019-05-25T06:06:39.869Z,46.61
2019-05-25T06:09:08.765Z,46.33
2019-05-25T06:11:37.133Z,45.08
2019-05-25T06:14:05.542Z,45.67
2019-05-25T06:16:33.832Z,44.21
2019-05-25T06:19:02.133Z,43.77
2019-05-25T06:21:30.450Z,43.87
2019-05-25T06:23:58.742Z,45.28
2019-05-25T06:26:27.345Z,43.94
2019-05-25T06:28:55.691Z,45.22
2019-05-25T06:31:24.039Z,44.72
2019-05-25T06:33:52.337Z,44.33
2019-05-25T06:36:20.646Z,44.75
2019-05-25T06:38:48.946Z,45.56
2019-05-25T06:41:17.619Z,43.65
2019-05-25T06:43:45.949Z,44.33
2019-05-25T06:46:14.288Z,43.50
2019-05-25T06:48:42.635Z,42.07
2019-05-25T06:51:10.931Z,43.82
2019-05-25T06:53:39.409Z,43.06
2019-05-25T06:56:08.493Z,44.58
2019-05-25T06:58:36.805Z,43.09
2019-05-25T07:01:05.254Z,40.73
2019-05-25T07:03:33.984Z,41.60
2019-05-25T07:06:02.335Z,41.10
2019-05-25T07:08:30.667Z,45.95
2019-05-25T07:10:58.968Z,44.16
2019-05-25T07:13:28.592Z,43.82
2019-05-25T07:15:57.179Z,41.76
2019-05-25T07:18:25.767Z,41.89
2019-05-25T07:20:54.147Z,42.54
2019-05-25T07:23:22.444Z,45.07
2019-05-25T07:25:50.859Z,44.11
2019-05-25T07:28:19.503Z,42.27
2019-05-25T07:30:47.937Z,38.94
2019-05-25T07:33:16.296Z,38.69
2019-05-25T07:35:44.580Z,39.31
2019-05-25T07:38:12.906Z,42.80
2019-05-25T07:40:41.615Z,43.35
2019-05-25T07:43:10.310Z,43.44
2019-05-25T07:45:39.111Z,42.46
2019-05-25T07:48:07.898Z,41.84
2019-05-25T07:50:36.214Z,39.17
2019-05-25T07:53:04.790Z,39.66
2019-05-25T07:55:33.159Z,40.02
2019-05-25T07:58:15.638Z,43.35
2019-05-25T08:00:31.576Z,40.85
2019-05-25T08:02:59.891Z,41.79
2019-05-25T08:05:28.216Z,40.11
2019-05-25T08:07:56.574Z,39.82
2019-05-25T08:10:25.168Z,41.14
2019-05-25T08:12:53.482Z,41.56
2019-05-25T08:15:21.880Z,42.73
2019-05-25T08:17:50.166Z,40.56
2019-05-25T08:20:18.483Z,40.87
2019-05-25T08:22:46.801Z,39.57
2019-05-25T08:25:15.601Z,38.71
2019-05-25T08:27:44.034Z,40.21
2019-05-25T08:30:13.096Z,39.95
2019-05-25T08:32:41.418Z,41.51
2019-05-25T08:35:10.069Z,41.77
2019-05-25T08:37:38.362Z,40.25
2019-05-25T08:40:08.204Z,38.47
2019-05-25T08:42:36.597Z,37.28
2019-05-25T08:45:08.503Z,37.85
2019-05-25T08:47:36.871Z,40.42
2019-05-25T08:50:08.807Z,36.94
2019-05-25T08:52:37.757Z,37.38
2019-05-25T08:55:07.230Z,36.88
2019-05-25T08:57:35.602Z,38.24
2019-05-25T09:00:06.020Z,37.22
2019-05-25T09:02:34.312Z,38.33
2019-05-25T09:05:02.801Z,38.47
2019-05-25T09:07:31.124Z,36.85
2019-05-25T09:09:59.449Z,37.11
2019-05-25T09:12:27.755Z,38.71
2019-05-25T09:14:56.115Z,36.81
2019-05-25T09:17:24.791Z,39.01
2019-05-25T09:19:53.264Z,37.65
2019-05-25T09:22:21.645Z,37.77
2019-05-25T09:24:49.966Z,36.06
2019-05-25T09:27:18.723Z,36.40
2019-05-25T09:29:47.019Z,38.00
2019-05-25T09:32:15.692Z,36.87
2019-05-25T09:34:44.000Z,40.89
2019-05-25T09:37:12.303Z,36.65
2019-05-25T09:39:40.667Z,37.23
2019-05-25T09:42:09.169Z,36.43
2019-05-25T09:44:37.478Z,35.00
2019-05-25T09:47:05.833Z,36.13
2019-05-25T09:49:34.148Z,36.59
2019-05-25T09:52:02.450Z,35.31
2019-05-25T09:54:30.840Z,35.97
2019-05-25T09:56:59.126Z,34.64
2019-05-25T09:59:27.534Z,34.16
2019-05-25T10:01:55.836Z,35.14
2019-05-25T10:04:24.446Z,33.36
2019-05-25T10:06:52.773Z,32.86
2019-05-25T10:09:21.209Z,33.58
2019-05-25T10:11:49.530Z,35.08
2019-05-25T10:14:17.964Z,37.27
2019-05-25T10:16:46.269Z,33.56
2019-05-25T10:19:14.582Z,36.06
2019-05-25T10:21:43.235Z,36.74
2019-05-25T10:24:11.564Z,34.76
2019-05-25T10:26:39.937Z,34.33
2019-05-25T10:29:08.263Z,32.23
2019-05-25T10:31:36.559Z,32.40
2019-05-25T10:34:05.472Z,29.53
2019-05-25T10:36:33.777Z,30.41
2019-05-25T10:39:02.070Z,33.80
2019-05-25T10:41:30.720Z,33.12
2019-05-25T10:43:59.159Z,29.60
2019-05-25T10:46:27.873Z,30.20
2019-05-25T10:48:56.188Z,27.81
2019-05-25T10:51:24.519Z,31.06
2019-05-25T10:53:52.821Z,31.77
2019-05-25T10:56:21.113Z,28.39
2019-05-25T10:58:50.385Z,29.03
2019-05-25T11:01:18.988Z,30.14
2019-05-25T11:03:47.591Z,30.40
2019-05-25T11:06:15.887Z,31.79
2019-05-25T11:08:44.190Z,30.52
2019-05-25T11:11:12.514Z,29.82
2019-05-25T11:13:41.184Z,28.15
2019-05-25T11:16:09.522Z,28.54
2019-05-25T11:18:38.103Z,28.00
2019-05-25T11:21:07.113Z,28.48
2019-05-25T11:23:35.451Z,28.71
2019-05-25T11:26:03.983Z,29.56
2019-05-25T11:28:32.716Z,29.55
2019-05-25T11:31:01.046Z,24.83
2019-05-25T11:33:29.462Z,26.10
2019-05-25T11:35:57.827Z,25.72
2019-05-25T11:38:26.133Z,27.21
2019-05-25T11:40:54.468Z,23.85
2019-05-25T11:43:22.771Z,24.98
2019-05-25T11:45:51.087Z,24.60
2019-05-25T11:48:19.683Z,27.98
2019-05-25T11:50:48.102Z,26.59
2019-05-25T11:53:16.388Z,25.13
2019-05-25T11:55:44.687Z,26.00
2019-05-25T11:58:13.054Z,24.83
2019-05-25T12:00:41.451Z,25.75
2019-05-25T12:03:09.751Z,26.73
2019-05-25T12:05:38.074Z,25.55
2019-05-25T12:08:06.368Z,23.82
2019-05-25T12:10:35.091Z,24.96
2019-05-25T12:13:03.385Z,23.71
2019-05-25T12:15:31.748Z,25.32
2019-05-25T12:18:00.437Z,23.04
2019-05-25T12:20:28.743Z,22.19
2019-05-25T12:22:57.059Z,23.56
2019-05-25T12:25:25.359Z,23.00
2019-05-25T12:27:53.671Z,23.59
2019-05-25T12:30:23.241Z,23.13
2019-05-25T12:32:51.575Z,21.51
2019-05-25T12:35:21.168Z,21.51
2019-05-25T12:37:49.848Z,22.02
2019-05-25T12:40:18.530Z,22.15
2019-05-25T12:42:46.894Z,23.01
2019-05-25T12:45:15.540Z,22.52
2019-05-25T12:47:43.841Z,24.36
2019-05-25T12:50:15.985Z,21.07
2019-05-25T12:52:44.302Z,21.07
2019-05-25T12:55:13.175Z,22.09
2019-05-25T12:57:41.924Z,23.10
2019-05-25T13:00:15.817Z,24.63
2019-05-25T13:02:40.938Z,21.94
2019-05-25T13:05:09.925Z,20.56
2019-05-25T13:07:38.232Z,21.90
2019-05-25T13:10:08.880Z,21.79
2019-05-25T13:12:37.180Z,22.88
2019-05-25T13:15:06.948Z,20.49
2019-05-25T13:17:35.235Z,22.28
2019-05-25T13:20:04.830Z,21.72
2019-05-25T13:22:33.134Z,21.21
2019-05-25T13:25:01.807Z,21.00
2019-05-25T13:27:30.101Z,21.92
2019-05-25T13:30:02.693Z,22.23
2019-05-25T13:32:28.811Z,23.14
2019-05-25T13:34:57.173Z,24.12
2019-05-25T13:37:25.489Z,22.12
2019-05-25T13:39:53.783Z,22.81
2019-05-25T13:42:22.103Z,24.29
2019-05-25T13:44:50.400Z,22.80
2019-05-25T13:47:18.724Z,21.44
2019-05-25T13:49:47.022Z,24.90
2019-05-25T13:52:15.353Z,23.28
2019-05-25T13:54:44.021Z,22.03
2019-05-25T13:57:12.717Z,23.77
2019-05-25T13:59:41.035Z,23.36
2019-05-25T14:02:09.786Z,23.35
2019-05-25T14:04:38.096Z,23.09
2019-05-25T14:07:06.543Z,23.90
2019-05-25T14:09:34.940Z,23.93
2019-05-25T14:12:03.237Z,21.07
2019-05-25T14:14:31.550Z,22.75
2019-05-25T14:16:59.855Z,21.14
2019-05-25T14:19:28.182Z,20.92
2019-05-25T14:21:56.480Z,21.89
2019-05-25T14:24:25.262Z,24.17
2019-05-25T14:26:53.567Z,22.50
2019-05-25T14:29:21.869Z,21.80
2019-05-25T14:31:51.001Z,22.38
2019-05-25T14:34:19.429Z,21.64
2019-05-25T14:36:47.744Z,21.08
2019-05-25T14:39:16.328Z,19.99
2019-05-25T14:41:44.733Z,21.89
2019-05-25T14:44:13.025Z,17.54
2019-05-25T14:46:41.392Z,18.20
2019-05-25T14:49:09.778Z,18.13
2019-05-25T14:51:38.074Z,18.04
2019-05-25T14:54:06.463Z,17.67
2019-05-25T14:56:34.755Z,18.07
2019-05-25T14:59:03.382Z,19.70
2019-05-25T15:01:33.332Z,18.72
2019-05-25T15:04:01.641Z,18.12
2019-05-25T15:06:30.264Z,18.09
2019-05-25T15:08:58.566Z,18.41
2019-05-25T15:11:26.963Z,19.55
2019-05-25T15:13:55.327Z,18.85
2019-05-25T15:16:23.644Z,18.10
2019-05-25T15:18:51.990Z,18.08
2019-05-25T15:21:20.412Z,17.82
2019-05-25T15:23:48.705Z,18.33
2019-05-25T15:26:17.031Z,18.08
2019-05-25T15:28:45.326Z,18.21
2019-05-25T15:31:13.661Z,17.77
2019-05-25T15:33:41.971Z,18.89
2019-05-25T15:36:10.544Z,19.84
2019-05-25T15:38:38.862Z,18.94
2019-05-25T15:41:07.227Z,19.75
2019-05-25T15:43:35.886Z,20.27
2019-05-25T15:46:04.272Z,20.18
2019-05-25T15:48:32.600Z,19.98
2019-05-25T15:51:00.929Z,20.09
2019-05-25T15:53:29.241Z,19.47
2019-05-25T15:55:57.538Z,19.70
2019-05-25T15:58:26.217Z,19.32
2019-05-25T16:00:54.511Z,18.97
2019-05-25T16:03:23.249Z,19.29
2019-05-25T16:05:51.645Z,20.34
2019-05-25T16:08:20.776Z,19.69
2019-05-25T16:10:49.238Z,19.26
2019-05-25T16:13:18.218Z,19.16
2019-05-25T16:15:46.913Z,19.67
2019-05-25T16:18:15.282Z,20.93
2019-05-25T16:20:43.615Z,21.44
2019-05-25T16:23:11.982Z,21.48
2019-05-25T16:25:40.357Z,22.02
2019-05-25T16:28:08.675Z,23.29
2019-05-25T16:30:38.323Z,23.38
2019-05-25T16:33:12.402Z,23.06
2019-05-25T16:35:36.735Z,23.38
2019-05-25T16:38:05.502Z,22.00
2019-05-25T16:40:34.075Z,21.51
2019-05-25T16:43:02.533Z,20.76
2019-05-25T16:45:30.811Z,20.64
2019-05-25T16:47:59.130Z,19.90
2019-05-25T16:50:27.635Z,19.90
2019-05-25T16:52:56.028Z,19.55
2019-05-25T16:55:24.337Z,18.85
2019-05-25T16:57:52.697Z,18.68
2019-05-25T17:00:28.966Z,16.80
2019-05-25T17:02:58.504Z,18.40
2019-05-25T17:05:27.924Z,18.51
2019-05-25T17:07:57.256Z,20.79
2019-05-25T17:10:25.688Z,20.78
2019-05-25T17:12:54.217Z,20.38
2019-05-25T17:15:22.573Z,21.83
2019-05-25T17:17:51.623Z,22.29
2019-05-25T17:20:20.477Z,23.09
2019-05-25T17:22:48.801Z,23.15
2019-05-25T17:25:17.471Z,23.20
2019-05-25T17:27:46.109Z,23.80
2019-05-25T17:30:15.341Z,23.86
2019-05-25T17:32:43.667Z,25.20
2019-05-25T17:35:12.311Z,23.58
2019-05-25T17:37:40.611Z,25.01
2019-05-25T17:40:09.306Z,24.33
2019-05-25T17:42:37.974Z,25.09
2019-05-25T17:45:07.497Z,24.88
2019-05-25T17:47:35.795Z,24.63
2019-05-25T17:50:05.575Z,24.92
2019-05-25T17:52:33.865Z,25.79
2019-05-25T17:55:02.438Z,24.95
2019-05-25T17:57:30.752Z,25.12
2019-05-25T17:59:59.695Z,26.24
2019-05-25T18:02:28.511Z,25.98
2019-05-25T18:04:57.208Z,25.92
2019-05-25T18:07:25.524Z,25.76
2019-05-25T18:09:53.817Z,24.81
2019-05-25T18:12:22.203Z,25.71
2019-05-25T18:14:50.666Z,25.38
2019-05-25T18:17:19.026Z,26.08
2019-05-25T18:19:47.445Z,25.65
2019-05-25T18:22:15.746Z,25.18
2019-05-25T18:24:44.533Z,26.05
2019-05-25T18:27:12.968Z,27.32
2019-05-25T18:29:41.467Z,27.65
2019-05-25T18:32:09.933Z,26.96
2019-05-25T18:34:38.249Z,27.55
2019-05-25T18:37:06.879Z,27.82
2019-05-25T18:39:35.265Z,29.24
2019-05-25T18:42:03.634Z,29.31
2019-05-25T18:44:31.971Z,28.86
2019-05-25T18:47:00.659Z,29.88
2019-05-25T18:49:28.954Z,30.02
2019-05-25T18:51:57.281Z,34.70
2019-05-25T18:54:25.574Z,34.07
2019-05-25T18:56:54.854Z,32.52
2019-05-25T18:59:23.150Z,32.04
2019-05-25T19:01:51.737Z,34.54
2019-05-25T19:04:20.033Z,32.92
2019-05-25T19:06:48.733Z,33.15
2019-05-25T19:09:17.093Z,33.07
2019-05-25T19:11:45.458Z,35.77
2019-05-25T19:14:14.135Z,32.93
2019-05-25T19:16:42.498Z,35.91
2019-05-25T19:19:11.116Z,35.00
2019-05-25T19:21:39.647Z,35.43
2019-05-25T19:24:08.156Z,35.57
2019-05-25T19:26:36.721Z,35.86
2019-05-25T19:29:05.841Z,34.20
2019-05-25T19:31:34.503Z,32.93
2019-05-25T19:34:03.079Z,35.22
2019-05-25T19:36:31.467Z,34.29
2019-05-25T19:39:00.107Z,33.82
2019-05-25T19:41:28.544Z,33.85
2019-05-25T19:43:56.917Z,34.79
2019-05-25T19:46:25.251Z,33.82
2019-05-25T19:48:53.622Z,32.97
2019-05-25T19:51:22.025Z,35.93
2019-05-25T19:53:50.413Z,37.35
2019-05-25T19:56:19.138Z,38.57
2019-05-25T19:58:47.577Z,41.85
2019-05-25T20:01:15.971Z,42.92
2019-05-25T20:03:44.295Z,43.88
2019-05-25T20:06:12.620Z,42.30
2019-05-25T20:08:40.955Z,43.57
2019-05-25T20:11:09.390Z,42.98
2019-05-25T20:13:38.189Z,44.36
2019-05-25T20:16:06.769Z,46.12
2019-05-25T20:18:35.135Z,46.82
2019-05-25T20:21:03.837Z,48.75
2019-05-25T20:23:32.204Z,48.09
2019-05-25T20:26:00.525Z,48.33
2019-05-25T20:28:28.838Z,48.00
2019-05-25T20:30:57.686Z,46.20
2019-05-25T20:33:28.066Z,48.01
2019-05-25T20:35:56.041Z,50.87
2019-05-25T20:38:24.365Z,51.06
2019-05-25T20:40:52.662Z,48.78
2019-05-25T20:43:20.980Z,50.98
2019-05-25T20:45:49.561Z,50.98
2019-05-25T20:48:17.881Z,52.16
2019-05-25T20:50:46.573Z,52.51
2019-05-25T20:53:14.906Z,53.46
2019-05-25T20:55:43.774Z,53.64
2019-05-25T20:58:12.114Z,51.35
2019-05-25T21:00:41.372Z,53.05
2019-05-25T21:03:09.749Z,54.12
2019-05-25T21:05:49.644Z,54.41
2019-05-25T21:08:08.164Z,55.50
2019-05-25T21:10:36.456Z,56.08
2019-05-25T21:13:04.823Z,53.68
2019-05-25T21:15:33.138Z,53.10
2019-05-25T21:18:01.870Z,50.89
2019-05-25T21:20:30.253Z,51.35
2019-05-25T21:22:58.551Z,52.23
2019-05-25T21:25:27.184Z,51.96
2019-05-25T21:27:55.878Z,51.54
2019-05-25T21:30:24.373Z,52.14
2019-05-25T21:32:52.717Z,53.41
2019-05-25T21:35:21.090Z,51.83
2019-05-25T21:37:49.478Z,53.46
2019-05-25T21:40:18.400Z,54.43
2019-05-25T21:42:46.711Z,55.22
2019-05-25T21:45:15.358Z,56.93
2019-05-25T21:47:43.681Z,57.51
2019-05-25T21:50:13.752Z,57.20
2019-05-25T21:52:42.459Z,56.88
2019-05-25T21:55:11.452Z,57.12
2019-05-25T21:57:40.149Z,56.16
2019-05-25T22:00:10.872Z,56.72
2019-05-25T22:03:06.266Z,56.26
2019-05-25T22:05:34.667Z,59.03
2019-05-25T22:08:02.975Z,56.04
2019-05-25T22:10:31.281Z,55.98
2019-05-25T22:12:59.925Z,51.78
2019-05-25T22:15:28.256Z,52.73
2019-05-25T22:17:56.621Z,54.14
2019-05-25T22:20:25.375Z,58.72
2019-05-25T22:22:53.708Z,52.48
2019-05-25T22:25:22.009Z,55.22
2019-05-25T22:27:50.624Z,54.41
2019-05-25T22:30:20.388Z,54.04
2019-05-25T22:32:48.715Z,54.24
2019-05-25T22:35:17.183Z,54.29
2019-05-25T22:37:45.500Z,55.34
2019-05-25T22:40:14.282Z,55.83
2019-05-25T22:42:42.679Z,51.49
2019-05-25T22:45:11.280Z,54.17
2019-05-25T22:47:39.620Z,52.57
2019-05-25T22:50:08.579Z,55.14
2019-05-25T22:52:37.245Z,53.47
2019-05-25T22:55:08.471Z,54.54
2019-05-25T22:57:36.728Z,54.05
2019-05-25T23:00:10.321Z,56.00
2019-05-25T23:02:38.835Z,56.15
2019-05-25T23:05:07.730Z,56.19
2019-05-25T23:07:35.994Z,53.83
2019-05-25T23:10:09.604Z,54.58
2019-05-25T23:12:38.393Z,55.95
2019-05-25T23:15:08.105Z,55.77
2019-05-25T23:17:36.440Z,55.73
2019-05-25T23:20:09.049Z,56.51
2019-05-25T23:22:37.481Z,54.80
2019-05-25T23:25:06.244Z,52.01
2019-05-25T23:27:34.931Z,52.40
2019-05-25T23:30:03.826Z,53.02
2019-05-25T23:32:32.149Z,52.93
2019-05-25T23:35:00.603Z,53.03
2019-05-25T23:37:28.921Z,53.33
2019-05-25T23:39:57.220Z,52.97
2019-05-25T23:42:25.557Z,53.85
2019-05-25T23:44:53.851Z,53.12
2019-05-25T23:47:22.213Z,52.09
2019-05-25T23:49:50.511Z,53.28
2019-05-25T23:52:18.829Z,53.28
2019-05-25T23:54:47.144Z,54.22
2019-05-25T23:57:15.511Z,52.13
2019-05-25T23:59:44.199Z,52.63
